CTSO2: Bird Creek At Catoosa

Data processed at Wed May 22 2019 23:50


All information presented herein is the property of the government of the United States of America and may be revised or deleted at any time without prior notice.
Dissemination of this information without the expressed written consent of the Public Affairs Office, Tulsa District U.S. Army Corps of Engineers is strictly prohibited.
These data are gathered electronically and, as presented, have not undergone any form of quality control. These data are not guaranteed to be valid or correct.
Go to home page.
Go to station list.
Go to home page.

Upstream stations:

Downstream station:
Previous Day
Next Day
Current Day
    
SHEF ID:       CTSO2     Bird Ck at State Highway 266 nea
STATION TYPE:  
Regulating: Stage =    26.00, Flow =    19016

                STAGE  STAGE(2)  RIV-FLOW  WTR-TEMP   DIS-OXY        PH   CONDUCT  BAT-LOAD
                   ft        ft       cfs         F      mg/l        su   umho/cm      volt
              Ccp-Rev   Ccp-Rev   Ccp-Rev   Ccp-Rev   Ccp-Rev   Ccp-Rev   Ccp-Rev   Ccp-Rev
(US/Central)
05/22 00:00     30.00     29.61     23650     63.32      6.03      7.08       107     12.65
05/22 01:00     30.09     29.69     23757     63.25      6.02      7.06       106     12.65
05/22 02:00     30.22     29.82     23913     63.18      6.01      7.06       106     12.57
05/22 03:00     30.38     30.01     24104     63.10      6.00      7.06       105     12.57
05/22 04:00     30.58     30.19     24345     63.00      5.99      7.05       104     12.57
05/22 05:00     30.77     30.38     24573     62.89      5.97      7.04       102     12.57
05/22 06:00     31.00     30.60     24851     62.82      5.95      7.04       101     12.49
05/22 07:00     31.27     30.82     25178     62.78      5.92      7.02       101     12.49
05/22 08:00     31.54     31.13     25506     62.78      5.88      7.01       101     12.57
05/22 09:00     31.89     31.45     25933     62.85      5.88      7.06        99     12.97
05/22 10:00     32.20     31.83     26314     62.94      5.88      7.05       100     13.37
05/22 11:00     32.51     32.12     26695     63.09      5.86      7.04       100     13.53
05/22 12:00     32.79     32.37     27041     63.23      5.82      7.04       101     13.29
05/22 13:00     32.98     32.57     27276     63.36      5.83      7.05       102     13.05
05/22 14:00     33.23     32.85     27587     63.54      5.85      7.05       103     12.97
05/22 15:00     33.69     33.24     28161     63.63      5.88      7.08       103     12.97
05/22 16:00     34.01     33.57     28563     63.64      5.93      7.08       104     12.89
05/22 17:00     34.29     33.84     28915     63.64      5.95      7.07       104     12.89
05/22 18:00     34.50     34.06     29181     63.70      5.98      7.06       103     12.81
05/22 19:00     34.72     34.30     29459     63.70      6.02      7.06       104     12.89
05/22 20:00     34.92     34.52     29713     63.72      6.05      7.06       104     12.65
05/22 21:00     35.16     34.66     30019     63.77      6.07      7.04       103     12.65
05/22 22:00     35.39     34.92     30313     63.81      6.10      7.06       103     12.65
05/22 23:00     35.49     35.06     30441     63.84      6.10      7.06       104     12.65